createdAt,value
2018-02-18T00:02:11.160Z,8.00
2018-02-18T00:05:34.540Z,8.40
2018-02-18T00:08:58.600Z,8.07
2018-02-18T00:12:21.897Z,8.07
2018-02-18T00:15:45.930Z,8.53
2018-02-18T00:19:10.138Z,9.33
2018-02-18T00:22:33.479Z,7.80
2018-02-18T00:25:56.848Z,9.40
2018-02-18T00:29:20.131Z,8.47
2018-02-18T00:32:44.256Z,7.43
2018-02-18T00:36:07.522Z,8.37
2018-02-18T00:39:30.854Z,9.50
2018-02-18T00:42:54.982Z,10.53
2018-02-18T00:46:18.417Z,9.27
2018-02-18T00:49:42.699Z,9.53
2018-02-18T00:53:06.065Z,10.23
2018-02-18T00:56:29.377Z,9.07
2018-02-18T00:59:53.441Z,9.20
2018-02-18T01:03:17.124Z,8.43
2018-02-18T01:06:40.465Z,7.83
2018-02-18T01:10:03.755Z,9.57
2018-02-18T01:13:27.105Z,7.60
2018-02-18T01:16:50.589Z,8.97
2018-02-18T01:20:14.715Z,9.10
2018-02-18T01:23:38.085Z,9.67
2018-02-18T01:27:01.516Z,9.20
2018-02-18T01:30:25.636Z,9.73
2018-02-18T01:33:48.941Z,11.40
2018-02-18T01:37:12.240Z,10.93
2018-02-18T01:40:36.301Z,10.47
2018-02-18T01:43:59.586Z,13.57
2018-02-18T01:47:22.863Z,11.00
2018-02-18T01:50:46.945Z,11.40
2018-02-18T01:54:10.249Z,11.80
2018-02-18T01:57:33.566Z,11.57
2018-02-18T02:00:56.835Z,11.20
2018-02-18T02:04:20.127Z,10.70
2018-02-18T02:07:44.168Z,11.07
2018-02-18T02:11:08.199Z,11.53
2018-02-18T02:14:32.255Z,12.00
2018-02-18T02:17:55.519Z,10.93
2018-02-18T02:21:18.831Z,12.10
2018-02-18T02:24:42.115Z,12.03
2018-02-18T02:28:05.431Z,11.57
2018-02-18T02:31:28.715Z,11.93
2018-02-18T02:34:52.003Z,12.47
2018-02-18T02:38:16.070Z,13.23
2018-02-18T02:41:39.436Z,12.60
2018-02-18T02:45:02.730Z,12.57
2018-02-18T02:48:25.993Z,13.53
2018-02-18T02:51:50.115Z,12.20
2018-02-18T02:55:13.406Z,12.23
2018-02-18T02:58:37.441Z,13.07
2018-02-18T03:02:00.785Z,13.47
2018-02-18T03:05:24.066Z,13.17
2018-02-18T03:08:48.193Z,12.53
2018-02-18T03:12:11.493Z,12.00
2018-02-18T03:15:34.846Z,12.77
2018-02-18T03:18:58.967Z,12.30
2018-02-18T03:22:22.339Z,12.40
2018-02-18T03:25:45.705Z,12.50
2018-02-18T03:29:08.996Z,13.23
2018-02-18T03:32:33.031Z,13.43
2018-02-18T03:35:57.067Z,12.60
2018-02-18T03:39:21.137Z,13.27
2018-02-18T03:42:44.426Z,14.27
2018-02-18T03:46:08.545Z,14.23
2018-02-18T03:49:31.822Z,13.33
2018-02-18T03:52:55.882Z,12.53
2018-02-18T03:56:19.127Z,14.37
2018-02-18T03:59:43.253Z,12.87
2018-02-18T04:03:06.553Z,12.53
2018-02-18T04:06:29.811Z,13.17
2018-02-18T04:09:53.085Z,11.53
2018-02-18T04:13:16.478Z,11.50
2018-02-18T04:16:39.847Z,12.67
2018-02-18T04:20:03.143Z,13.27
2018-02-18T04:23:26.411Z,13.73
2018-02-18T04:26:49.683Z,13.83
2018-02-18T04:30:12.965Z,14.10
2018-02-18T04:33:36.292Z,14.43
2018-02-18T04:37:00.359Z,15.27
2018-02-18T04:40:23.707Z,13.03
2018-02-18T04:43:47.771Z,14.23
2018-02-18T04:47:11.156Z,15.17
2018-02-18T04:50:34.457Z,14.10
2018-02-18T04:53:57.793Z,14.33
2018-02-18T04:57:21.934Z,15.63
2018-02-18T05:00:46.126Z,14.83
2018-02-18T05:04:10.263Z,13.33
2018-02-18T05:07:34.393Z,14.47
2018-02-18T05:10:57.695Z,13.13
2018-02-18T05:14:21.005Z,13.57
2018-02-18T05:17:44.300Z,11.60
2018-02-18T05:21:07.673Z,11.97
2018-02-18T05:24:31.723Z,12.53
2018-02-18T05:27:55.844Z,12.57
2018-02-18T05:31:19.154Z,12.80
2018-02-18T05:34:42.459Z,13.73
2018-02-18T05:38:05.853Z,12.77
2018-02-18T05:41:29.991Z,11.93
2018-02-18T05:44:53.406Z,11.60
2018-02-18T05:48:17.544Z,11.63
2018-02-18T05:51:40.858Z,13.37
2018-02-18T05:55:04.200Z,15.50
2018-02-18T05:58:28.279Z,12.30
2018-02-18T06:01:51.648Z,13.93
2018-02-18T06:05:15.007Z,13.67
2018-02-18T06:08:38.348Z,13.57
2018-02-18T06:12:02.395Z,15.43
2018-02-18T06:15:25.703Z,14.07
2018-02-18T06:18:49.782Z,16.33
2018-02-18T06:22:13.150Z,14.13
2018-02-18T06:25:36.518Z,16.20
2018-02-18T06:28:59.925Z,17.00
2018-02-18T06:32:23.211Z,15.77
2018-02-18T06:35:47.256Z,17.00
2018-02-18T06:39:11.992Z,15.77
2018-02-18T06:42:35.353Z,16.57
2018-02-18T06:45:58.678Z,17.50
2018-02-18T06:49:22.107Z,16.20
2018-02-18T06:52:45.387Z,16.57
2018-02-18T06:56:09.429Z,18.20
2018-02-18T06:59:33.479Z,16.07
2018-02-18T07:02:56.761Z,17.27
2018-02-18T07:06:20.200Z,15.90
2018-02-18T07:09:44.354Z,15.73
2018-02-18T07:13:07.776Z,18.73
2018-02-18T07:16:31.069Z,16.37
2018-02-18T07:19:55.117Z,18.80
2018-02-18T07:23:19.151Z,16.13
2018-02-18T07:26:43.193Z,19.10
2018-02-18T07:30:07.264Z,17.40
2018-02-18T07:33:30.635Z,17.97
2018-02-18T07:36:54.702Z,15.73
2018-02-18T07:40:18.096Z,16.47
2018-02-18T07:43:42.144Z,18.00
2018-02-18T07:47:07.654Z,18.10
2018-02-18T07:50:31.779Z,16.97
2018-02-18T07:53:56.148Z,18.00
2018-02-18T07:57:20.403Z,17.27
2018-02-18T08:00:44.361Z,17.93
2018-02-18T08:04:08.489Z,17.97
2018-02-18T08:07:31.962Z,16.73
2018-02-18T08:10:55.331Z,19.73
2018-02-18T08:14:18.704Z,18.23
2018-02-18T08:17:42.072Z,19.70
2018-02-18T08:21:06.119Z,21.03
2018-02-18T08:24:30.219Z,17.73
2018-02-18T08:27:54.304Z,18.93
2018-02-18T08:31:18.584Z,21.07
2018-02-18T08:34:43.884Z,18.93
2018-02-18T08:38:07.943Z,19.37
2018-02-18T08:41:31.245Z,20.93
2018-02-18T08:44:54.529Z,20.60
2018-02-18T08:48:18.624Z,19.27
2018-02-18T08:51:41.969Z,20.07
2018-02-18T08:55:05.566Z,20.00
2018-02-18T08:58:28.905Z,21.13
2018-02-18T09:01:52.214Z,21.10
2018-02-18T09:05:16.297Z,21.60
2018-02-18T09:08:39.885Z,17.50
2018-02-18T09:12:03.266Z,18.63
2018-02-18T09:15:26.703Z,18.03
2018-02-18T09:18:50.008Z,18.87
2018-02-18T09:22:13.400Z,18.87
2018-02-18T09:25:37.177Z,22.07
2018-02-18T09:29:01.245Z,20.67
2018-02-18T09:32:25.313Z,21.07
2018-02-18T09:35:48.643Z,18.50
2018-02-18T09:39:12.021Z,20.50
2018-02-18T09:42:36.085Z,17.90
2018-02-18T09:45:59.416Z,17.57
2018-02-18T09:49:22.721Z,15.00
2018-02-18T09:52:46.028Z,17.07
2018-02-18T09:56:10.220Z,18.83
2018-02-18T09:59:34.378Z,15.67
2018-02-18T10:02:58.865Z,15.97
2018-02-18T10:06:22.214Z,16.00
2018-02-18T10:09:46.328Z,15.80
2018-02-18T10:13:09.597Z,14.57
2018-02-18T10:16:33.009Z,17.07
2018-02-18T10:19:56.764Z,17.83
2018-02-18T10:23:20.182Z,16.07
2018-02-18T10:26:44.302Z,17.33
2018-02-18T10:30:07.738Z,14.93
2018-02-18T10:33:32.157Z,16.77
2018-02-18T10:36:56.439Z,18.90
2018-02-18T10:40:20.617Z,17.87
2018-02-18T10:43:44.324Z,16.77
2018-02-18T10:47:07.681Z,16.80
2018-02-18T10:50:31.928Z,16.00
2018-02-18T10:53:56.110Z,15.73
2018-02-18T10:57:20.439Z,18.70
2018-02-18T11:00:43.889Z,17.77
2018-02-18T11:04:07.162Z,20.50
2018-02-18T11:07:30.453Z,20.03
2018-02-18T11:10:53.765Z,19.87
2018-02-18T11:14:17.072Z,19.80
2018-02-18T11:17:40.451Z,19.00
2018-02-18T11:21:04.586Z,19.40
2018-02-18T11:24:27.886Z,19.70
2018-02-18T11:27:51.161Z,17.90
2018-02-18T11:31:14.467Z,19.00
2018-02-18T11:34:38.532Z,19.17
2018-02-18T11:38:01.893Z,19.87
2018-02-18T11:41:25.205Z,18.20
2018-02-18T11:44:48.490Z,20.40
2018-02-18T11:48:11.808Z,17.13
2018-02-18T11:51:35.142Z,16.23
2018-02-18T11:54:59.201Z,18.90
2018-02-18T11:58:22.496Z,18.60
2018-02-18T12:01:46.544Z,22.33
2018-02-18T12:05:10.569Z,19.00
2018-02-18T12:08:34.689Z,17.90
2018-02-18T12:11:58.029Z,19.07
2018-02-18T12:15:22.139Z,20.50
2018-02-18T12:18:45.521Z,20.30
2018-02-18T12:22:08.827Z,19.53
2018-02-18T12:25:32.200Z,19.17
2018-02-18T12:28:56.265Z,20.23
2018-02-18T12:32:20.329Z,19.27
2018-02-18T12:35:43.610Z,20.97
2018-02-18T12:39:07.754Z,22.40
2018-02-18T12:42:31.803Z,20.93
2018-02-18T12:45:55.200Z,21.73
2018-02-18T12:49:18.575Z,23.87
2018-02-18T12:52:42.681Z,23.13
2018-02-18T12:56:06.779Z,22.40
2018-02-18T12:59:30.160Z,24.27
2018-02-18T13:02:53.497Z,23.87
2018-02-18T13:06:17.562Z,23.30
2018-02-18T13:09:40.851Z,22.33
2018-02-18T13:13:04.904Z,21.97
2018-02-18T13:16:28.216Z,22.87
2018-02-18T13:19:51.568Z,25.23
2018-02-18T13:23:14.860Z,26.43
2018-02-18T13:26:38.188Z,23.90
2018-02-18T13:30:01.526Z,21.10
2018-02-18T13:33:25.588Z,26.03
2018-02-18T13:36:48.883Z,23.90
2018-02-18T13:40:12.945Z,21.03
2018-02-18T13:43:36.332Z,27.07
2018-02-18T13:47:00.406Z,23.27
2018-02-18T13:50:23.790Z,24.60
2018-02-18T13:53:47.142Z,28.37
2018-02-18T13:57:10.455Z,26.40
2018-02-18T14:00:33.733Z,27.67
2018-02-18T14:03:57.082Z,28.60
2018-02-18T14:07:21.151Z,23.90
2018-02-18T14:10:45.086Z,25.50
2018-02-18T14:14:08.369Z,29.47
2018-02-18T14:17:32.420Z,21.57
2018-02-18T14:20:55.732Z,22.13
2018-02-18T14:24:19.040Z,22.13
2018-02-18T14:27:43.104Z,22.77
2018-02-18T14:31:06.430Z,21.47
2018-02-18T14:34:29.776Z,19.87
2018-02-18T14:37:53.240Z,19.90
2018-02-18T14:41:36.080Z,19.83
2018-02-18T14:45:17.505Z,18.30
2018-02-18T14:48:59.623Z,22.47
2018-02-18T14:52:42.837Z,24.03
2018-02-18T14:56:26.497Z,19.60
2018-02-18T14:59:50.588Z,21.93
2018-02-18T15:03:14.684Z,24.90
2018-02-18T15:06:38.909Z,24.37
2018-02-18T15:10:03.106Z,24.50
2018-02-18T15:13:27.194Z,20.93
2018-02-18T15:16:51.476Z,22.90
2018-02-18T15:20:14.974Z,22.23
2018-02-18T15:23:38.487Z,20.73
2018-02-18T15:27:03.521Z,24.87
2018-02-18T15:30:26.981Z,24.53
2018-02-18T15:33:51.112Z,25.33
2018-02-18T15:37:15.328Z,26.27
2018-02-18T15:40:38.688Z,26.20
2018-02-18T15:44:02.214Z,26.27
2018-02-18T15:47:25.603Z,25.80
2018-02-18T15:50:49.716Z,27.17
2018-02-18T15:54:13.294Z,26.27
2018-02-18T15:57:36.739Z,25.73
2018-02-18T16:01:01.016Z,27.37
2018-02-18T16:04:25.132Z,29.87
2018-02-18T16:07:49.294Z,28.73
2018-02-18T16:11:12.579Z,28.70
2018-02-18T16:14:36.012Z,28.90
2018-02-18T16:17:59.476Z,32.50
2018-02-18T16:21:24.916Z,29.73
2018-02-18T16:24:48.340Z,29.37
2018-02-18T16:28:11.736Z,28.10
2018-02-18T16:31:36.013Z,28.27
2018-02-18T16:34:59.622Z,31.30
2018-02-18T16:38:22.988Z,27.27
2018-02-18T16:41:46.567Z,30.70
2018-02-18T16:45:10.058Z,29.37
2018-02-18T16:48:33.480Z,27.83
2018-02-18T16:51:56.812Z,27.93
2018-02-18T16:55:20.982Z,29.87
2018-02-18T16:58:44.400Z,27.37
2018-02-18T17:02:07.798Z,31.67
2018-02-18T17:05:31.972Z,28.47
2018-02-18T17:08:55.389Z,25.30
2018-02-18T17:12:19.596Z,26.13
2018-02-18T17:15:43.810Z,25.00
2018-02-18T17:19:07.227Z,27.90
2018-02-18T17:22:30.659Z,26.10
2018-02-18T17:25:54.100Z,26.00
2018-02-18T17:29:17.558Z,25.17
2018-02-18T17:32:41.028Z,23.30
2018-02-18T17:36:05.248Z,27.23
2018-02-18T17:39:29.300Z,26.87
2018-02-18T17:42:53.405Z,26.60
2018-02-18T17:46:17.784Z,27.30
2018-02-18T17:49:41.275Z,29.43
2018-02-18T17:53:05.928Z,27.33
2018-02-18T17:56:29.423Z,24.20
2018-02-18T17:59:52.819Z,26.47
2018-02-18T18:03:16.963Z,28.83
2018-02-18T18:06:40.303Z,27.03
2018-02-18T18:10:03.812Z,26.07
2018-02-18T18:13:27.113Z,26.87
2018-02-18T18:16:51.406Z,26.60
2018-02-18T18:28:15.064Z,25.57
2018-02-18T18:31:38.556Z,32.60
2018-02-18T18:35:02.803Z,25.70
2018-02-18T18:38:26.884Z,26.63
2018-02-18T18:41:50.251Z,29.20
2018-02-18T18:45:13.567Z,29.13
2018-02-18T18:48:36.856Z,27.07
2018-02-18T18:52:01.823Z,26.43
2018-02-18T18:55:25.103Z,33.43
2018-02-18T18:58:48.443Z,28.30
2018-02-18T19:02:12.523Z,31.93
2018-02-18T19:05:35.890Z,29.07
2018-02-18T19:09:00.027Z,33.83
2018-02-18T19:12:23.504Z,24.90
2018-02-18T19:15:47.692Z,31.00
2018-02-18T19:19:10.997Z,32.13
2018-02-18T19:22:34.427Z,34.33
2018-02-18T19:25:57.733Z,28.57
2018-02-18T19:29:21.120Z,31.20
2018-02-18T19:32:44.425Z,32.73
2018-02-18T19:36:07.861Z,28.93
2018-02-18T19:39:31.979Z,30.13
2018-02-18T19:42:55.365Z,33.80
2018-02-18T19:46:19.490Z,32.57
2018-02-18T19:49:42.750Z,32.77
2018-02-18T19:53:06.026Z,34.07
2018-02-18T19:56:29.334Z,34.70
2018-02-18T19:59:52.953Z,33.60
2018-02-18T20:03:16.408Z,34.40
2018-02-18T20:06:40.141Z,32.73
2018-02-18T20:10:04.262Z,33.50
2018-02-18T20:13:27.926Z,37.33
2018-02-18T20:16:51.680Z,34.97
2018-02-18T20:20:15.385Z,33.63
2018-02-18T20:23:39.844Z,34.10
2018-02-18T20:35:02.895Z,31.40
2018-02-18T20:38:26.517Z,36.37
2018-02-18T20:41:50.800Z,32.23
2018-02-18T20:45:14.381Z,33.73
2018-02-18T20:48:37.977Z,30.97
2018-02-18T20:52:01.303Z,33.00
2018-02-18T20:55:24.787Z,33.77
2018-02-18T20:58:48.932Z,31.17
2018-02-18T21:02:12.298Z,33.07
2018-02-18T21:05:35.672Z,33.47
2018-02-18T21:08:59.820Z,36.17
2018-02-18T21:12:23.878Z,36.43
2018-02-18T21:15:47.188Z,34.83
2018-02-18T21:19:10.456Z,35.43
2018-02-18T21:22:33.729Z,28.10
2018-02-18T21:25:57.071Z,36.43
2018-02-18T21:29:20.390Z,35.50
2018-02-18T21:32:43.694Z,32.67
2018-02-18T21:36:07.022Z,34.63
2018-02-18T21:39:30.378Z,35.37
2018-02-18T21:42:53.766Z,36.53
2018-02-18T21:46:17.851Z,36.83
2018-02-18T21:49:41.221Z,39.90
2018-02-18T21:53:04.592Z,35.83
2018-02-18T21:56:27.902Z,38.67
2018-02-18T21:59:51.201Z,35.53
2018-02-18T22:03:15.260Z,32.60
2018-02-18T22:06:38.575Z,35.33
2018-02-18T22:10:02.700Z,34.40
2018-02-18T22:13:25.981Z,35.53
2018-02-18T22:16:49.353Z,36.67
2018-02-18T22:20:12.661Z,37.83
2018-02-18T22:23:36.051Z,31.90
2018-02-18T22:26:59.355Z,35.33
2018-02-18T22:30:22.690Z,32.67
2018-02-18T22:33:46.042Z,36.47
2018-02-18T22:37:09.426Z,39.43
2018-02-18T22:40:32.737Z,36.83
2018-02-18T22:43:56.023Z,38.63
2018-02-18T22:47:20.154Z,40.23
2018-02-18T22:50:43.418Z,42.50
2018-02-18T22:54:06.792Z,39.60
2018-02-18T22:57:30.162Z,32.13
2018-02-18T23:00:53.460Z,37.47
2018-02-18T23:04:16.717Z,37.87
2018-02-18T23:07:40.779Z,42.83
2018-02-18T23:11:04.068Z,37.83
2018-02-18T23:14:28.126Z,41.50
2018-02-18T23:17:51.453Z,38.87
2018-02-18T23:21:14.833Z,40.13
2018-02-18T23:24:38.175Z,37.73
2018-02-18T23:28:01.519Z,40.17
2018-02-18T23:31:25.583Z,44.60
2018-02-18T23:34:48.863Z,39.07
2018-02-18T23:38:12.245Z,37.27
2018-02-18T23:41:35.605Z,42.50
2018-02-18T23:45:00.598Z,36.60
2018-02-18T23:48:23.886Z,37.70
2018-02-18T23:51:47.206Z,37.87
2018-02-18T23:55:10.627Z,41.83
2018-02-18T23:58:33.998Z,41.50
